< < Back
Terminal Aerodrome Forecast


Current Version              Previous Versions:   1  2  3  4  5  6  7  8  9  

Terminal Aerodrome Forecast

695
FTUS44 KMRX 080520
TAFTYS
TAF
KTYS 080520Z 0806/0906 23005KT P6SM BKN250
     FM081000 23006KT P6SM BKN050 OVC100
     FM081200 23006KT 6SM -RA BR OVC020
     FM081500 24011KT P6SM VCSH OVC035
     FM081800 24015G22KT P6SM -SHRA OVC050
     FM082300 25012KT 6SM -SHRA BR OVC025
     FM090300 25011KT P6SM -SHSN OVC025=



Latest METAR

347
SAUS80 KWBC 081700 RRA
MTRTYS
METAR KTYS 081653Z 23013KT 10SM FEW034 SCT050 BKN080 08/M03 A2971 RMK
AO2 SLP061 T00831028


USA.gov is the U.S. government's official web portal to all federal, state and local government web resources and services.